ΕΜΥ, Εθνική Μετεωρολογική Υπηρεσία - Δελτία Καιρού, Προγνώσεις

ΑΕΡΟΝΑΥΤΙΛΙΑ

GREEK AIRPORTS CODES

LGNX 151350Z 31007KT 9999 FEW025 21/14 Q1017=

EUROPEAN AIRPORTS CODES

LFPO 151800Z 19007KT 6000 -RASN BKN004 BKN010 01/01 Q0999TEMPO 2000 SNRA BKN004=